sensor_id;sensor_type;location;lat;lon;timestamp;pressure;altitude;pressure_sealevel;temperature;humidity
50977;BME280;36992;48.200;12.418;2023-01-29T00:01:03;97650.22;;;3.99;55.38
50977;BME280;36992;48.200;12.418;2023-01-29T00:03:29;97655.81;;;3.97;55.63
50977;BME280;36992;48.200;12.418;2023-01-29T00:05:57;97654.97;;;3.97;55.59
50977;BME280;36992;48.200;12.418;2023-01-29T00:08:24;97646.41;;;3.95;55.61
50977;BME280;36992;48.200;12.418;2023-01-29T00:10:51;97646.41;;;3.95;55.66
50977;BME280;36992;48.200;12.418;2023-01-29T00:13:18;97647.41;;;3.94;55.54
50977;BME280;36992;48.200;12.418;2023-01-29T00:15:52;97648.59;;;3.98;55.45
50977;BME280;36992;48.200;12.418;2023-01-29T00:18:19;97642.09;;;3.94;55.25
50977;BME280;36992;48.200;12.418;2023-01-29T00:20:45;97640.72;;;3.91;55.60
50977;BME280;36992;48.200;12.418;2023-01-29T00:23:13;97639.41;;;3.94;55.64
50977;BME280;36992;48.200;12.418;2023-01-29T00:25:39;97647.66;;;3.92;55.54
50977;BME280;36992;48.200;12.418;2023-01-29T00:28:06;97644.16;;;3.91;55.43
50977;BME280;36992;48.200;12.418;2023-01-29T00:30:34;97646.63;;;3.93;55.61
50977;BME280;36992;48.200;12.418;2023-01-29T00:33:00;97648.25;;;3.94;55.41
50977;BME280;36992;48.200;12.418;2023-01-29T00:35:27;97649.66;;;3.97;55.30
50977;BME280;36992;48.200;12.418;2023-01-29T00:37:53;97648.03;;;3.96;55.17
50977;BME280;36992;48.200;12.418;2023-01-29T00:40:21;97656.03;;;3.96;55.32
50977;BME280;36992;48.200;12.418;2023-01-29T00:42:48;97651.72;;;3.95;55.24
50977;BME280;36992;48.200;12.418;2023-01-29T00:45:33;97651.13;;;3.92;55.15
50977;BME280;36992;48.200;12.418;2023-01-29T00:48:01;97652.16;;;3.91;55.26
50977;BME280;36992;48.200;12.418;2023-01-29T00:50:28;97644.38;;;3.90;55.40
50977;BME280;36992;48.200;12.418;2023-01-29T00:52:54;97657.97;;;3.88;55.42
50977;BME280;36992;48.200;12.418;2023-01-29T00:55:22;97654.25;;;3.89;55.46
50977;BME280;36992;48.200;12.418;2023-01-29T00:57:49;97653.06;;;3.85;55.51
50977;BME280;36992;48.200;12.418;2023-01-29T01:00:18;97660.63;;;3.88;55.29
50977;BME280;36992;48.200;12.418;2023-01-29T01:02:44;97653.28;;;3.84;55.18
50977;BME280;36992;48.200;12.418;2023-01-29T01:05:28;97657.22;;;3.81;55.67
50977;BME280;36992;48.200;12.418;2023-01-29T01:07:56;97659.31;;;3.79;55.55
50977;BME280;36992;48.200;12.418;2023-01-29T01:10:27;97655.38;;;3.82;55.65
50977;BME280;36992;48.200;12.418;2023-01-29T01:12:55;97649.22;;;3.81;55.66
50977;BME280;36992;48.200;12.418;2023-01-29T01:15:23;97647.38;;;3.82;55.77
50977;BME280;36992;48.200;12.418;2023-01-29T01:17:53;97646.94;;;3.85;55.89
50977;BME280;36992;48.200;12.418;2023-01-29T01:20:20;97652.50;;;3.83;55.49
50977;BME280;36992;48.200;12.418;2023-01-29T01:22:47;97651.44;;;3.84;55.62
50977;BME280;36992;48.200;12.418;2023-01-29T01:25:13;97653.66;;;3.87;55.16
50977;BME280;36992;48.200;12.418;2023-01-29T01:27:41;97654.25;;;3.89;55.12
50977;BME280;36992;48.200;12.418;2023-01-29T01:30:10;97653.22;;;3.90;55.32
50977;BME280;36992;48.200;12.418;2023-01-29T01:32:39;97655.06;;;3.90;55.06
50977;BME280;36992;48.200;12.418;2023-01-29T01:35:07;97657.50;;;3.91;55.16
50977;BME280;36992;48.200;12.418;2023-01-29T01:37:34;97654.84;;;3.91;55.11
50977;BME280;36992;48.200;12.418;2023-01-29T01:40:04;97650.91;;;3.94;55.62
50977;BME280;36992;48.200;12.418;2023-01-29T01:42:37;97657.06;;;3.95;55.13
50977;BME280;36992;48.200;12.418;2023-01-29T01:45:07;97657.44;;;3.98;55.36
50977;BME280;36992;48.200;12.418;2023-01-29T01:47:36;97665.19;;;4.00;55.15
50977;BME280;36992;48.200;12.418;2023-01-29T01:50:08;97664.16;;;4.01;54.86
50977;BME280;36992;48.200;12.418;2023-01-29T01:52:40;97665.78;;;4.02;55.08
50977;BME280;36992;48.200;12.418;2023-01-29T01:55:08;97664.97;;;4.01;54.73
50977;BME280;36992;48.200;12.418;2023-01-29T01:57:39;97661.50;;;4.01;54.56
50977;BME280;36992;48.200;12.418;2023-01-29T02:00:11;97669.25;;;4.02;54.65
50977;BME280;36992;48.200;12.418;2023-01-29T02:02:41;97658.00;;;4.00;54.75
50977;BME280;36992;48.200;12.418;2023-01-29T02:05:27;97660.88;;;3.99;54.49
50977;BME280;36992;48.200;12.418;2023-01-29T02:08:13;97665.66;;;3.97;54.74
50977;BME280;36992;48.200;12.418;2023-01-29T02:10:57;97661.56;;;3.94;54.78
50977;BME280;36992;48.200;12.418;2023-01-29T02:13:25;97653.00;;;3.92;54.38
50977;BME280;36992;48.200;12.418;2023-01-29T02:15:53;97657.06;;;3.95;54.85
50977;BME280;36992;48.200;12.418;2023-01-29T02:18:20;97661.78;;;3.92;54.84
50977;BME280;36992;48.200;12.418;2023-01-29T02:21:06;97660.31;;;3.97;54.82
50977;BME280;36992;48.200;12.418;2023-01-29T02:26:52;97664.59;;;3.98;54.71
50977;BME280;36992;48.200;12.418;2023-01-29T02:29:30;97662.97;;;3.97;54.52
50977;BME280;36992;48.200;12.418;2023-01-29T02:32:10;97664.81;;;3.96;54.69
50977;BME280;36992;48.200;12.418;2023-01-29T02:34:46;97661.34;;;3.96;54.41
50977;BME280;36992;48.200;12.418;2023-01-29T02:37:37;97655.19;;;3.95;54.76
50977;BME280;36992;48.200;12.418;2023-01-29T02:40:12;97662.97;;;3.97;54.75
50977;BME280;36992;48.200;12.418;2023-01-29T02:42:47;97672.59;;;3.98;54.83
50977;BME280;36992;48.200;12.418;2023-01-29T02:45:22;97659.84;;;4.00;54.81
50977;BME280;36992;48.200;12.418;2023-01-29T02:47:54;97648.97;;;4.01;54.78
50977;BME280;36992;48.200;12.418;2023-01-29T02:50:27;97662.06;;;4.03;54.52
50977;BME280;36992;48.200;12.418;2023-01-29T02:53:00;97666.56;;;4.02;54.70
50977;BME280;36992;48.200;12.418;2023-01-29T02:55:33;97659.19;;;4.04;54.52
50977;BME280;36992;48.200;12.418;2023-01-29T02:58:04;97653.59;;;4.06;54.52
50977;BME280;36992;48.200;12.418;2023-01-29T03:00:37;97655.25;;;4.07;54.76
50977;BME280;36992;48.200;12.418;2023-01-29T03:03:07;97658.94;;;4.06;54.61
50977;BME280;36992;48.200;12.418;2023-01-29T03:05:39;97654.22;;;4.08;54.36
50977;BME280;36992;48.200;12.418;2023-01-29T03:08:15;97651.56;;;4.08;54.40
50977;BME280;36992;48.200;12.418;2023-01-29T03:10:46;97653.44;;;4.20;54.56
50977;BME280;36992;48.200;12.418;2023-01-29T03:13:18;97649.03;;;4.13;53.89
50977;BME280;36992;48.200;12.418;2023-01-29T03:15:52;97647.38;;;4.12;54.25
50977;BME280;36992;48.200;12.418;2023-01-29T03:18:27;97656.41;;;4.11;53.95
50977;BME280;36992;48.200;12.418;2023-01-29T03:20:59;97657.47;;;4.10;54.13
50977;BME280;36992;48.200;12.418;2023-01-29T03:23:30;97650.28;;;4.11;54.22
50977;BME280;36992;48.200;12.418;2023-01-29T03:26:19;97646.78;;;4.10;54.38
50977;BME280;36992;48.200;12.418;2023-01-29T03:29:06;97644.13;;;4.10;54.04
50977;BME280;36992;48.200;12.418;2023-01-29T03:31:54;97648.19;;;4.13;54.13
50977;BME280;36992;48.200;12.418;2023-01-29T03:34:35;97650.03;;;4.12;54.10
50977;BME280;36992;48.200;12.418;2023-01-29T03:37:06;97651.06;;;4.11;54.00
50977;BME280;36992;48.200;12.418;2023-01-29T03:39:34;97651.06;;;4.11;53.85
50977;BME280;36992;48.200;12.418;2023-01-29T03:42:11;97651.44;;;4.15;53.70
50977;BME280;36992;48.200;12.418;2023-01-29T03:44:47;97656.78;;;4.15;53.96
50977;BME280;36992;48.200;12.418;2023-01-29T03:47:20;97650.63;;;4.14;53.80
50977;BME280;36992;48.200;12.418;2023-01-29T03:49:56;97649.03;;;4.13;54.03
50977;BME280;36992;48.200;12.418;2023-01-29T03:52:27;97650.84;;;4.13;53.60
50977;BME280;36992;48.200;12.418;2023-01-29T03:55:03;97650.03;;;4.12;53.91
50977;BME280;36992;48.200;12.418;2023-01-29T03:57:37;97649.81;;;4.14;53.96
50977;BME280;36992;48.200;12.418;2023-01-29T04:00:10;97643.69;;;4.13;53.93
50977;BME280;36992;48.200;12.418;2023-01-29T04:02:46;97647.97;;;4.14;54.01
50977;BME280;36992;48.200;12.418;2023-01-29T04:05:19;97641.81;;;4.14;53.75
50977;BME280;36992;48.200;12.418;2023-01-29T04:07:47;97631.97;;;4.14;53.90
50977;BME280;36992;48.200;12.418;2023-01-29T04:10:20;97629.06;;;4.16;53.42
50977;BME280;36992;48.200;12.418;2023-01-29T04:12:50;97621.31;;;4.14;53.91
50977;BME280;36992;48.200;12.418;2023-01-29T04:15:21;97621.88;;;4.16;53.64
50977;BME280;36992;48.200;12.418;2023-01-29T04:17:51;97632.53;;;4.16;53.49
50977;BME280;36992;48.200;12.418;2023-01-29T04:20:19;97629.31;;;4.14;53.25
50977;BME280;36992;48.200;12.418;2023-01-29T04:22:47;97626.84;;;4.13;53.03
50977;BME280;36992;48.200;12.418;2023-01-29T04:25:15;97622.34;;;4.13;53.37
50977;BME280;36992;48.200;12.418;2023-01-29T04:27:44;97621.31;;;4.14;53.47
50977;BME280;36992;48.200;12.418;2023-01-29T04:30:22;97622.94;;;4.15;53.76
50977;BME280;36992;48.200;12.418;2023-01-29T04:33:18;97628.84;;;4.17;53.73
50977;BME280;36992;48.200;12.418;2023-01-29T04:35:54;97630.94;;;4.15;53.71
50977;BME280;36992;48.200;12.418;2023-01-29T04:38:37;97622.09;;;4.15;54.00
50977;BME280;36992;48.200;12.418;2023-01-29T04:41:11;97626.38;;;4.16;53.88
50977;BME280;36992;48.200;12.418;2023-01-29T04:43:46;97625.59;;;4.15;53.48
50977;BME280;36992;48.200;12.418;2023-01-29T04:46:19;97633.38;;;4.17;53.33
50977;BME280;36992;48.200;12.418;2023-01-29T04:48:59;97644.84;;;4.17;53.54
50977;BME280;36992;48.200;12.418;2023-01-29T04:51:34;97643.22;;;4.16;53.48
50977;BME280;36992;48.200;12.418;2023-01-29T04:54:08;97629.31;;;4.14;53.53
50977;BME280;36992;48.200;12.418;2023-01-29T04:56:41;97625.59;;;4.15;53.64
50977;BME280;36992;48.200;12.418;2023-01-29T04:59:14;97625.59;;;4.15;53.48
50977;BME280;36992;48.200;12.418;2023-01-29T05:01:43;97626.84;;;4.13;53.44
50977;BME280;36992;48.200;12.418;2023-01-29T05:04:13;97627.22;;;4.16;53.42
50977;BME280;36992;48.200;12.418;2023-01-29T05:06:42;97620.47;;;4.14;53.08
50977;BME280;36992;48.200;12.418;2023-01-29T05:09:12;97625.59;;;4.15;53.10
50977;BME280;36992;48.200;12.418;2023-01-29T05:11:41;97635.69;;;4.13;52.83
50977;BME280;36992;48.200;12.418;2023-01-29T05:14:10;97629.75;;;4.11;53.36
50977;BME280;36992;48.200;12.418;2023-01-29T05:16:41;97639.63;;;4.11;53.38
50977;BME280;36992;48.200;12.418;2023-01-29T05:19:11;97648.28;;;4.06;53.45
50977;BME280;36992;48.200;12.418;2023-01-29T05:21:40;97649.09;;;4.07;53.27
50977;BME280;36992;48.200;12.418;2023-01-29T05:24:11;97655.25;;;4.07;53.45
50977;BME280;36992;48.200;12.418;2023-01-29T05:26:41;97657.94;;;4.07;52.94
50977;BME280;36992;48.200;12.418;2023-01-29T05:29:25;97663.25;;;4.07;52.81
50977;BME280;36992;48.200;12.418;2023-01-29T05:31:52;97655.69;;;4.04;52.66
50977;BME280;36992;48.200;12.418;2023-01-29T05:34:20;97657.31;;;4.05;53.19
50977;BME280;36992;48.200;12.418;2023-01-29T05:36:46;97644.19;;;4.03;53.32
50977;BME280;36992;48.200;12.418;2023-01-29T05:39:13;97653.25;;;4.02;53.36
50977;BME280;36992;48.200;12.418;2023-01-29T05:41:39;97658.38;;;4.04;53.19
50977;BME280;36992;48.200;12.418;2023-01-29T05:44:06;97663.69;;;4.04;53.17
50977;BME280;36992;48.200;12.418;2023-01-29T05:46:32;97664.28;;;4.06;53.48
50977;BME280;36992;48.200;12.418;2023-01-29T05:48:59;97668.59;;;4.07;53.11
50977;BME280;36992;48.200;12.418;2023-01-29T05:51:27;97668.34;;;4.09;53.08
50977;BME280;36992;48.200;12.418;2023-01-29T05:53:53;97665.94;;;4.07;52.99
50977;BME280;36992;48.200;12.418;2023-01-29T05:56:20;97664.06;;;4.08;53.25
50977;BME280;36992;48.200;12.418;2023-01-29T05:58:46;97665.94;;;4.07;53.08
50977;BME280;36992;48.200;12.418;2023-01-29T06:01:14;97670.22;;;4.08;52.94
50977;BME280;36992;48.200;12.418;2023-01-29T06:03:41;97658.16;;;4.05;53.32
50977;BME280;36992;48.200;12.418;2023-01-29T06:06:08;97663.47;;;4.05;53.22
50977;BME280;36992;48.200;12.418;2023-01-29T06:08:36;97658.94;;;4.06;53.50
50977;BME280;36992;48.200;12.418;2023-01-29T06:11:03;97664.28;;;4.06;53.50
50977;BME280;36992;48.200;12.418;2023-01-29T06:13:29;97661.84;;;4.04;53.65
50977;BME280;36992;48.200;12.418;2023-01-29T06:15:56;97659.75;;;4.07;53.82
50977;BME280;36992;48.200;12.418;2023-01-29T06:18:22;97657.94;;;4.07;53.71
50977;BME280;36992;48.200;12.418;2023-01-29T06:20:49;97651.56;;;4.08;53.43
50977;BME280;36992;48.200;12.418;2023-01-29T06:23:15;97651.56;;;4.08;53.44
50977;BME280;36992;48.200;12.418;2023-01-29T06:25:43;97659.09;;;4.11;53.33
50977;BME280;36992;48.200;12.418;2023-01-29T06:28:10;97669.97;;;4.10;53.52
50977;BME280;36992;48.200;12.418;2023-01-29T06:30:36;97659.28;;;4.10;53.37
50977;BME280;36992;48.200;12.418;2023-01-29T06:33:03;97670.78;;;4.10;53.06
50977;BME280;36992;48.200;12.418;2023-01-29T06:35:30;97669.16;;;4.09;53.38
50977;BME280;36992;48.200;12.418;2023-01-29T06:37:56;97664.88;;;4.08;53.03
50977;BME280;36992;48.200;12.418;2023-01-29T06:40:23;97669.59;;;4.06;53.31
50977;BME280;36992;48.200;12.418;2023-01-29T06:42:50;97671.25;;;4.07;53.18
50977;BME280;36992;48.200;12.418;2023-01-29T06:45:17;97667.19;;;4.04;53.47
50977;BME280;36992;48.200;12.418;2023-01-29T06:47:43;97676.19;;;4.03;53.36
50977;BME280;36992;48.200;12.418;2023-01-29T06:50:10;97673.53;;;4.03;53.34
50977;BME280;36992;48.200;12.418;2023-01-29T06:52:37;97680.75;;;4.03;53.58
50977;BME280;36992;48.200;12.418;2023-01-29T06:55:04;97675.41;;;4.03;53.31
50977;BME280;36992;48.200;12.418;2023-01-29T06:57:31;97671.69;;;4.04;53.34
50977;BME280;36992;48.200;12.418;2023-01-29T06:59:59;97669.84;;;4.04;53.57
50977;BME280;36992;48.200;12.418;2023-01-29T07:02:25;97669.03;;;4.04;53.56
50977;BME280;36992;48.200;12.418;2023-01-29T07:04:52;97663.47;;;4.05;53.54
50977;BME280;36992;48.200;12.418;2023-01-29T07:07:18;97658.94;;;4.06;53.67
50977;BME280;36992;48.200;12.418;2023-01-29T07:09:45;97665.09;;;4.07;53.24
50977;BME280;36992;48.200;12.418;2023-01-29T07:12:11;97665.94;;;4.07;53.54
50977;BME280;36992;48.200;12.418;2023-01-29T07:14:38;97661.38;;;4.08;53.47
50977;BME280;36992;48.200;12.418;2023-01-29T07:17:05;97658.50;;;4.09;53.38
50977;BME280;36992;48.200;12.418;2023-01-29T07:19:32;97662.22;;;4.08;53.42
50977;BME280;36992;48.200;12.418;2023-01-29T07:21:58;97655.84;;;4.09;53.68
50977;BME280;36992;48.200;12.418;2023-01-29T07:24:26;97647.84;;;4.09;53.31
50977;BME280;36992;48.200;12.418;2023-01-29T07:26:53;97653.16;;;4.09;53.39
50977;BME280;36992;48.200;12.418;2023-01-29T07:29:19;97647.84;;;4.09;53.40
50977;BME280;36992;48.200;12.418;2023-01-29T07:31:46;97644.13;;;4.10;53.69
50977;BME280;36992;48.200;12.418;2023-01-29T07:34:13;97644.69;;;4.12;53.52
50977;BME280;36992;48.200;12.418;2023-01-29T07:36:40;97646.56;;;4.12;53.49
50977;BME280;36992;48.200;12.418;2023-01-29T07:39:06;97643.69;;;4.13;53.35
50977;BME280;36992;48.200;12.418;2023-01-29T07:41:33;97637.53;;;4.13;53.56
50977;BME280;36992;48.200;12.418;2023-01-29T07:43:59;97645.31;;;4.14;53.40
50977;BME280;36992;48.200;12.418;2023-01-29T07:46:26;97634.63;;;4.14;53.61
50977;BME280;36992;48.200;12.418;2023-01-29T07:48:52;97638.94;;;4.15;53.49
50977;BME280;36992;48.200;12.418;2023-01-29T07:51:20;97637.88;;;4.16;53.43
50977;BME280;36992;48.200;12.418;2023-01-29T07:53:47;97618.63;;;4.14;53.06
50977;BME280;36992;48.200;12.418;2023-01-29T07:56:13;97618.84;;;4.13;53.23
50977;BME280;36992;48.200;12.418;2023-01-29T07:58:40;97627.56;;;4.08;52.94
50977;BME280;36992;48.200;12.418;2023-01-29T08:01:06;97621.59;;;4.06;52.79
50977;BME280;36992;48.200;12.418;2023-01-29T08:03:33;97623.34;;;4.00;52.37
50977;BME280;36992;48.200;12.418;2023-01-29T08:06:00;97627.06;;;3.99;52.98
50977;BME280;36992;48.200;12.418;2023-01-29T08:08:27;97626.22;;;3.99;53.48
50977;BME280;36992;48.200;12.418;2023-01-29T08:10:54;97624.03;;;3.96;53.26
50977;BME280;36992;48.200;12.418;2023-01-29T08:13:21;97624.25;;;3.94;53.55
50977;BME280;36992;48.200;12.418;2023-01-29T08:15:47;97634.09;;;3.94;53.46
50977;BME280;36992;48.200;12.418;2023-01-29T08:18:13;97636.75;;;3.94;53.79
50977;BME280;36992;48.200;12.418;2023-01-29T08:20:40;97640.25;;;3.94;53.50
50977;BME280;36992;48.200;12.418;2023-01-29T08:23:09;97648.81;;;3.96;53.53
50977;BME280;36992;48.200;12.418;2023-01-29T08:25:39;97653.34;;;3.96;53.91
50977;BME280;36992;48.200;12.418;2023-01-29T08:28:05;97653.34;;;3.96;53.53
50977;BME280;36992;48.200;12.418;2023-01-29T08:30:33;97652.31;;;3.97;53.47
50977;BME280;36992;48.200;12.418;2023-01-29T08:33:00;97654.97;;;3.97;53.19
50977;BME280;36992;48.200;12.418;2023-01-29T08:35:26;97658.47;;;3.97;52.96
50977;BME280;36992;48.200;12.418;2023-01-29T08:37:53;97664.03;;;3.96;52.71
50977;BME280;36992;48.200;12.418;2023-01-29T08:40:20;97663.41;;;3.94;53.00
50977;BME280;36992;48.200;12.418;2023-01-29T08:42:48;97664.25;;;3.94;53.05
50977;BME280;36992;48.200;12.418;2023-01-29T08:45:14;97669.22;;;3.90;53.29
50977;BME280;36992;48.200;12.418;2023-01-29T08:47:44;97681.28;;;3.93;53.06
50977;BME280;36992;48.200;12.418;2023-01-29T08:50:11;97687.03;;;3.90;52.84
50977;BME280;36992;48.200;12.418;2023-01-29T08:52:38;97686.03;;;3.91;52.83
50977;BME280;36992;48.200;12.418;2023-01-29T08:55:05;97688.44;;;3.92;53.11
50977;BME280;36992;48.200;12.418;2023-01-29T08:57:32;97687.41;;;3.94;52.57
50977;BME280;36992;48.200;12.418;2023-01-29T08:59:59;97686.97;;;3.97;52.83
50977;BME280;36992;48.200;12.418;2023-01-29T09:02:26;97694.97;;;3.97;52.52
50977;BME280;36992;48.200;12.418;2023-01-29T09:04:52;97688.59;;;3.98;52.28
50977;BME280;36992;48.200;12.418;2023-01-29T09:07:20;97693.72;;;3.99;52.35
50977;BME280;36992;48.200;12.418;2023-01-29T09:09:46;97684.88;;;3.99;52.36
50977;BME280;36992;48.200;12.418;2023-01-29T09:12:13;97695.56;;;3.99;52.14
50977;BME280;36992;48.200;12.418;2023-01-29T09:14:40;97698.81;;;4.01;51.83
50977;BME280;36992;48.200;12.418;2023-01-29T09:17:08;97691.41;;;4.03;51.31
50977;BME280;36992;48.200;12.418;2023-01-29T09:19:34;97695.56;;;3.99;51.17
50977;BME280;36992;48.200;12.418;2023-01-29T09:22:01;97701.94;;;3.98;50.50
50977;BME280;36992;48.200;12.418;2023-01-29T09:24:28;97706.69;;;3.96;50.23
50977;BME280;36992;48.200;12.418;2023-01-29T09:26:55;97708.72;;;3.94;51.16
50977;BME280;36992;48.200;12.418;2023-01-29T09:29:21;97709.78;;;3.92;51.25
50977;BME280;36992;48.200;12.418;2023-01-29T09:31:48;97708.72;;;3.94;50.98
50977;BME280;36992;48.200;12.418;2023-01-29T09:34:15;97710.38;;;3.95;51.27
50977;BME280;36992;48.200;12.418;2023-01-29T09:36:42;97704.44;;;3.92;50.85
50977;BME280;36992;48.200;12.418;2023-01-29T09:39:09;97716.16;;;3.91;51.06
50977;BME280;36992;48.200;12.418;2023-01-29T09:41:47;97718.38;;;3.95;51.71
50977;BME280;36992;48.200;12.418;2023-01-29T09:44:22;97713.50;;;3.91;51.81
50977;BME280;36992;48.200;12.418;2023-01-29T09:46:50;97719.03;;;3.90;51.72
50977;BME280;36992;48.200;12.418;2023-01-29T09:49:23;97727.84;;;3.90;51.69
50977;BME280;36992;48.200;12.418;2023-01-29T09:51:52;97724.38;;;3.90;51.30
50977;BME280;36992;48.200;12.418;2023-01-29T09:54:24;97721.94;;;3.88;51.25
50977;BME280;36992;48.200;12.418;2023-01-29T09:56:55;97721.34;;;3.86;51.09
50977;BME280;36992;48.200;12.418;2023-01-29T09:59:24;97726.09;;;3.84;50.92
50977;BME280;36992;48.200;12.418;2023-01-29T10:02:00;97724.00;;;3.86;51.69
50977;BME280;36992;48.200;12.418;2023-01-29T10:05:00;97717.41;;;3.89;51.97
50977;BME280;36992;48.200;12.418;2023-01-29T10:07:43;97718.66;;;3.86;51.68
50977;BME280;36992;48.200;12.418;2023-01-29T10:10:34;97722.97;;;3.87;51.41
50977;BME280;36992;48.200;12.418;2023-01-29T10:13:15;97718.44;;;3.88;51.30
50977;BME280;36992;48.200;12.418;2023-01-29T10:15:51;97714.16;;;3.87;51.24
50977;BME280;36992;48.200;12.418;2023-01-29T10:18:43;97710.66;;;3.86;51.70
50977;BME280;36992;48.200;12.418;2023-01-29T10:21:25;97702.47;;;3.88;51.87
50977;BME280;36992;48.200;12.418;2023-01-29T10:24:02;97709.63;;;3.87;51.21
50977;BME280;36992;48.200;12.418;2023-01-29T10:26:35;97701.63;;;3.87;50.87
50977;BME280;36992;48.200;12.418;2023-01-29T10:29:06;97700.16;;;3.91;51.40
50977;BME280;36992;48.200;12.418;2023-01-29T10:31:36;97700.16;;;3.91;50.84
50977;BME280;36992;48.200;12.418;2023-01-29T10:34:09;97703.41;;;3.94;50.98
50977;BME280;36992;48.200;12.418;2023-01-29T10:36:41;97701.34;;;3.96;51.26
50977;BME280;36992;48.200;12.418;2023-01-29T10:39:14;97693.94;;;3.98;51.17
50977;BME280;36992;48.200;12.418;2023-01-29T10:44:36;97695.13;;;4.02;51.05
50977;BME280;36992;48.200;12.418;2023-01-29T10:47:20;97690.38;;;4.04;51.22
50977;BME280;36992;48.200;12.418;2023-01-29T10:50:03;97691.19;;;4.04;50.47
50977;BME280;36992;48.200;12.418;2023-01-29T10:52:43;97680.28;;;4.06;50.54
50977;BME280;36992;48.200;12.418;2023-01-29T10:55:23;97685.38;;;4.08;50.16
50977;BME280;36992;48.200;12.418;2023-01-29T10:58:03;97686.66;;;4.05;50.19
50977;BME280;36992;48.200;12.418;2023-01-29T11:00:34;97678.50;;;4.00;50.24
50977;BME280;36992;48.200;12.418;2023-01-29T11:03:12;97677.50;;;4.01;50.83
50977;BME280;36992;48.200;12.418;2023-01-29T11:05:43;97677.72;;;3.99;49.98
50977;BME280;36992;48.200;12.418;2023-01-29T11:08:17;97673.19;;;4.00;50.39
50977;BME280;36992;48.200;12.418;2023-01-29T11:10:52;97668.09;;;3.98;50.29
50977;BME280;36992;48.200;12.418;2023-01-29T11:13:21;97675.03;;;3.99;49.55
50977;BME280;36992;48.200;12.418;2023-01-29T11:15:50;97674.69;;;3.96;49.87
50977;BME280;36992;48.200;12.418;2023-01-29T11:18:18;97680.44;;;3.92;49.51
50977;BME280;36992;48.200;12.418;2023-01-29T11:20:45;97675.72;;;3.95;49.89
50977;BME280;36992;48.200;12.418;2023-01-29T11:23:24;97671.81;;;3.97;50.31
50977;BME280;36992;48.200;12.418;2023-01-29T11:25:53;97670.84;;;3.91;49.68
50977;BME280;36992;48.200;12.418;2023-01-29T11:28:35;97673.84;;;3.95;50.38
50977;BME280;36992;48.200;12.418;2023-01-29T11:31:01;97668.63;;;3.88;49.78
50977;BME280;36992;48.200;12.418;2023-01-29T11:33:29;97672.56;;;3.86;49.49
50977;BME280;36992;48.200;12.418;2023-01-29T11:35:55;97672.78;;;3.84;49.65
50977;BME280;36992;48.200;12.418;2023-01-29T11:38:26;97665.34;;;3.86;50.08
50977;BME280;36992;48.200;12.418;2023-01-29T11:41:04;97656.78;;;3.84;50.05
50977;BME280;36992;48.200;12.418;2023-01-29T11:43:31;97643.31;;;3.79;49.80
50977;BME280;36992;48.200;12.418;2023-01-29T11:46:00;97641.22;;;3.81;50.43
50977;BME280;36992;48.200;12.418;2023-01-29T11:48:38;97633.00;;;3.83;50.60
50977;BME280;36992;48.200;12.418;2023-01-29T11:51:07;97625.22;;;3.81;49.75
50977;BME280;36992;48.200;12.418;2023-01-29T11:53:38;97617.84;;;3.83;50.15
50977;BME280;36992;48.200;12.418;2023-01-29T11:56:20;97606.72;;;3.86;50.18
50977;BME280;36992;48.200;12.418;2023-01-29T11:58:48;97594.44;;;3.85;50.04
50977;BME280;36992;48.200;12.418;2023-01-29T12:01:17;97579.63;;;3.89;49.89
50977;BME280;36992;48.200;12.418;2023-01-29T12:03:50;97573.03;;;3.92;50.71
50977;BME280;36992;48.200;12.418;2023-01-29T12:06:20;97569.09;;;3.95;50.47
50977;BME280;36992;48.200;12.418;2023-01-29T12:08:54;97567.56;;;3.99;51.02
50977;BME280;36992;48.200;12.418;2023-01-29T12:11:28;97559.94;;;4.02;50.58
50977;BME280;36992;48.200;12.418;2023-01-29T12:13:56;97555.41;;;4.03;50.54
50977;BME280;36992;48.200;12.418;2023-01-29T12:16:27;97548.34;;;4.09;50.91
50977;BME280;36992;48.200;12.418;2023-01-29T12:19:04;97551.38;;;4.12;50.87
50977;BME280;36992;48.200;12.418;2023-01-29T12:21:38;97566.09;;;4.15;50.65
50977;BME280;36992;48.200;12.418;2023-01-29T12:24:21;97563.22;;;4.16;50.74
50977;BME280;36992;48.200;12.418;2023-01-29T12:26:54;97569.13;;;4.18;49.89
50977;BME280;36992;48.200;12.418;2023-01-29T12:29:30;97564.81;;;4.17;49.98
50977;BME280;36992;48.200;12.418;2023-01-29T12:32:06;97565.44;;;4.20;50.20
50977;BME280;36992;48.200;12.418;2023-01-29T12:34:42;97563.00;;;4.18;49.75
50977;BME280;36992;48.200;12.418;2023-01-29T12:37:15;97575.97;;;4.14;49.49
50977;BME280;36992;48.200;12.418;2023-01-29T12:39:45;97571.91;;;4.12;50.37
50977;BME280;36992;48.200;12.418;2023-01-29T12:42:16;97566.56;;;4.12;50.37
50977;BME280;36992;48.200;12.418;2023-01-29T12:44:46;97568.41;;;4.11;50.26
50977;BME280;36992;48.200;12.418;2023-01-29T12:47:18;97569.22;;;4.12;50.10
50977;BME280;36992;48.200;12.418;2023-01-29T12:49:50;97555.91;;;4.12;50.29
50977;BME280;36992;48.200;12.418;2023-01-29T12:52:21;97548.13;;;4.10;49.81
50977;BME280;36992;48.200;12.418;2023-01-29T12:54:54;97542.78;;;4.10;50.64
50977;BME280;36992;48.200;12.418;2023-01-29T12:57:31;97537.47;;;4.10;50.56
50977;BME280;36992;48.200;12.418;2023-01-29T13:00:02;97528.41;;;4.11;50.80
50977;BME280;36992;48.200;12.418;2023-01-29T13:02:33;97525.75;;;4.11;50.80
50977;BME280;36992;48.200;12.418;2023-01-29T13:05:04;97523.44;;;4.15;50.47
50977;BME280;36992;48.200;12.418;2023-01-29T13:07:37;97520.53;;;4.16;50.72
50977;BME280;36992;48.200;12.418;2023-01-29T13:10:14;97522.16;;;4.17;50.74
50977;BME280;36992;48.200;12.418;2023-01-29T13:12:50;97510.69;;;4.17;50.75
50977;BME280;36992;48.200;12.418;2023-01-29T13:15:23;97505.09;;;4.18;50.65
50977;BME280;36992;48.200;12.418;2023-01-29T13:17:56;97504.09;;;4.20;50.13
50977;BME280;36992;48.200;12.418;2023-01-29T13:20:27;97497.09;;;4.18;50.32
50977;BME280;36992;48.200;12.418;2023-01-29T13:22:56;97493.41;;;4.20;49.88
50977;BME280;36992;48.200;12.418;2023-01-29T13:25:25;97490.75;;;4.20;50.22